createdAt,value
2023-05-22T00:00:17.866Z,18.60
2023-05-22T00:02:52.554Z,18.53
2023-05-22T00:05:26.160Z,18.46
2023-05-22T00:07:58.946Z,18.40
2023-05-22T00:10:31.646Z,18.34
2023-05-22T00:13:04.282Z,18.28
2023-05-22T00:15:37.242Z,18.23
2023-05-22T00:18:13.814Z,18.19
2023-05-22T00:20:46.669Z,18.13
2023-05-22T00:23:19.352Z,18.08
2023-05-22T00:25:52.124Z,18.03
2023-05-22T00:28:24.881Z,17.97
2023-05-22T00:30:57.641Z,17.94
2023-05-22T00:33:31.745Z,17.91
2023-05-22T00:36:04.787Z,17.88
2023-05-22T00:38:38.189Z,17.86
2023-05-22T00:41:11.049Z,17.86
2023-05-22T00:43:45.605Z,17.85
2023-05-22T00:46:21.787Z,17.86
2023-05-22T00:48:55.940Z,17.84
2023-05-22T00:51:29.174Z,17.84
2023-05-22T00:54:02.047Z,17.83
2023-05-22T00:56:34.897Z,17.83
2023-05-22T00:59:08.026Z,17.82
2023-05-22T01:01:42.951Z,17.84
2023-05-22T01:04:18.686Z,17.82
2023-05-22T01:06:51.884Z,17.82
2023-05-22T01:09:24.669Z,17.82
2023-05-22T01:12:00.587Z,17.82
2023-05-22T01:14:37.719Z,17.79
2023-05-22T01:17:22.744Z,17.77
2023-05-22T01:20:14.430Z,17.77
2023-05-22T01:23:11.892Z,17.74
2023-05-22T01:25:55.048Z,17.72
2023-05-22T01:28:45.646Z,17.69
2023-05-22T01:31:22.232Z,17.68
2023-05-22T01:33:56.385Z,17.66
2023-05-22T01:36:31.860Z,17.65
2023-05-22T01:39:06.486Z,17.63
2023-05-22T01:41:39.737Z,17.61
2023-05-22T01:44:12.833Z,17.62
2023-05-22T01:46:46.895Z,17.60
2023-05-22T01:49:19.766Z,17.59
2023-05-22T01:51:53.952Z,17.58
2023-05-22T01:54:32.012Z,17.56
2023-05-22T01:57:07.464Z,17.56
2023-05-22T01:59:45.541Z,17.52
2023-05-22T02:02:21.209Z,17.49
2023-05-22T02:04:56.084Z,17.47
2023-05-22T02:07:29.768Z,17.44
2023-05-22T02:10:03.625Z,17.41
2023-05-22T02:12:36.682Z,17.38
2023-05-22T02:15:10.415Z,17.34
2023-05-22T02:17:45.692Z,17.31
2023-05-22T02:20:19.009Z,17.29
2023-05-22T02:22:51.649Z,17.27
2023-05-22T02:25:24.619Z,17.25
2023-05-22T02:27:57.367Z,17.24
2023-05-22T02:30:30.303Z,17.23
2023-05-22T02:33:05.639Z,17.24
2023-05-22T02:35:38.470Z,17.22
2023-05-22T02:38:11.335Z,17.23
2023-05-22T02:40:44.019Z,17.22
2023-05-22T02:43:17.100Z,17.23
2023-05-22T02:45:49.823Z,17.24
2023-05-22T02:48:24.131Z,17.23
2023-05-22T02:50:57.107Z,17.24
2023-05-22T02:53:29.832Z,17.24
2023-05-22T02:56:03.455Z,17.25
2023-05-22T02:58:36.154Z,17.24
2023-05-22T03:01:09.138Z,17.25
2023-05-22T03:03:43.783Z,17.26
2023-05-22T03:06:16.936Z,17.26
2023-05-22T03:08:49.638Z,17.27
2023-05-22T03:11:22.616Z,17.27
2023-05-22T03:13:55.367Z,17.28
2023-05-22T03:16:28.234Z,17.29
2023-05-22T03:19:10.342Z,17.30
2023-05-22T03:21:44.438Z,17.29
2023-05-22T03:24:17.433Z,17.30
2023-05-22T03:26:50.283Z,17.29
2023-05-22T03:29:23.117Z,17.29
2023-05-22T03:31:56.240Z,17.29
2023-05-22T03:34:32.248Z,17.27
2023-05-22T03:37:05.362Z,17.25
2023-05-22T03:39:39.538Z,17.24
2023-05-22T03:42:13.506Z,17.24
2023-05-22T03:44:46.152Z,17.24
2023-05-22T03:47:18.984Z,17.26
2023-05-22T03:49:53.132Z,17.25
2023-05-22T03:52:26.179Z,17.25
2023-05-22T03:54:58.898Z,17.26
2023-05-22T03:57:31.650Z,17.27
2023-05-22T04:00:06.682Z,17.27
2023-05-22T04:02:40.063Z,17.28
2023-05-22T04:05:14.370Z,17.28
2023-05-22T04:07:47.349Z,17.29
2023-05-22T04:10:22.619Z,17.30
2023-05-22T04:12:55.510Z,17.30
2023-05-22T04:15:28.360Z,17.32
2023-05-22T04:18:01.890Z,17.33
2023-05-22T04:20:36.068Z,17.34
2023-05-22T04:23:08.986Z,17.38
2023-05-22T04:25:41.737Z,17.38
2023-05-22T04:28:17.564Z,17.38
2023-05-22T04:30:50.562Z,17.40
2023-05-22T04:33:24.585Z,17.41
2023-05-22T04:35:58.678Z,17.41
2023-05-22T04:38:31.611Z,17.42
2023-05-22T04:41:04.722Z,17.43
2023-05-22T04:43:38.895Z,17.45
2023-05-22T04:46:11.660Z,17.47
2023-05-22T04:48:44.474Z,17.50
2023-05-22T04:51:18.642Z,17.53
2023-05-22T04:53:52.046Z,17.59
2023-05-22T04:56:35.394Z,17.66
2023-05-22T04:59:10.413Z,17.82
2023-05-22T05:01:45.446Z,18.02
2023-05-22T05:04:18.512Z,18.27
2023-05-22T05:06:52.967Z,18.58
2023-05-22T05:09:25.899Z,18.93
2023-05-22T05:11:59.272Z,19.33
2023-05-22T05:14:32.323Z,19.72
2023-05-22T05:17:05.114Z,20.11
2023-05-22T05:19:37.904Z,20.52
2023-05-22T05:22:12.067Z,20.96
2023-05-22T05:24:44.817Z,21.42
2023-05-22T05:27:17.533Z,21.86
2023-05-22T05:29:50.360Z,22.31
2023-05-22T05:32:23.316Z,22.77
2023-05-22T05:34:56.470Z,23.22
2023-05-22T05:37:30.912Z,23.66
2023-05-22T05:40:04.724Z,24.08
2023-05-22T05:42:37.430Z,24.48
2023-05-22T05:45:11.017Z,24.85
2023-05-22T05:47:43.738Z,25.22
2023-05-22T05:50:16.713Z,25.57
2023-05-22T05:52:50.794Z,25.89
2023-05-22T05:55:23.739Z,26.19
2023-05-22T05:57:56.464Z,26.48
2023-05-22T06:00:29.257Z,26.74
2023-05-22T06:03:02.223Z,26.98
2023-05-22T06:05:35.315Z,27.22
2023-05-22T06:08:09.607Z,27.44
2023-05-22T06:10:42.523Z,27.66
2023-05-22T06:13:15.405Z,27.88
2023-05-22T06:15:48.558Z,28.08
2023-05-22T06:18:21.335Z,28.29
2023-05-22T06:20:54.430Z,28.48
2023-05-22T06:23:28.630Z,28.64
2023-05-22T06:26:01.707Z,28.78
2023-05-22T06:28:34.441Z,28.90
2023-05-22T06:31:07.248Z,28.99
2023-05-22T06:33:40.888Z,29.08
2023-05-22T06:36:13.921Z,29.14
2023-05-22T06:38:49.615Z,29.17
2023-05-22T06:41:22.950Z,29.17
2023-05-22T06:43:56.030Z,29.17
2023-05-22T06:46:29.160Z,29.15
2023-05-22T06:49:02.003Z,29.11
2023-05-22T06:51:34.773Z,29.00
2023-05-22T06:54:09.540Z,28.88
2023-05-22T06:56:42.531Z,28.75
2023-05-22T06:59:15.224Z,28.59
2023-05-22T07:01:48.477Z,28.42
2023-05-22T07:04:21.683Z,28.26
2023-05-22T07:06:54.673Z,28.09
2023-05-22T07:09:29.334Z,27.95
2023-05-22T07:12:02.037Z,27.81
2023-05-22T07:14:34.771Z,27.69
2023-05-22T07:17:07.571Z,27.59
2023-05-22T07:19:40.216Z,27.50
2023-05-22T07:22:12.910Z,27.41
2023-05-22T07:24:47.571Z,27.35
2023-05-22T07:27:20.437Z,27.29
2023-05-22T07:29:53.207Z,27.25
2023-05-22T07:32:25.988Z,27.22
2023-05-22T07:34:58.724Z,27.18
2023-05-22T07:37:31.803Z,27.17
2023-05-22T07:40:07.444Z,27.15
2023-05-22T07:42:40.276Z,27.14
2023-05-22T07:45:12.950Z,27.14
2023-05-22T07:47:45.684Z,27.14
2023-05-22T07:50:18.475Z,27.13
2023-05-22T07:52:51.176Z,27.14
2023-05-22T07:55:25.310Z,27.14
2023-05-22T07:57:58.043Z,27.16
2023-05-22T08:00:31.290Z,27.18
2023-05-22T08:03:04.135Z,27.20
2023-05-22T08:05:37.182Z,27.22
2023-05-22T08:08:10.463Z,27.26
2023-05-22T08:10:58.137Z,27.29
2023-05-22T08:13:37.847Z,27.33
2023-05-22T08:16:11.190Z,27.37
2023-05-22T08:18:44.221Z,27.40
2023-05-22T08:21:16.921Z,27.44
2023-05-22T08:23:49.652Z,27.47
2023-05-22T08:26:24.064Z,27.49
2023-05-22T08:28:56.873Z,27.53
2023-05-22T08:31:30.076Z,27.56
2023-05-22T08:34:04.816Z,27.58
2023-05-22T08:36:37.647Z,27.61
2023-05-22T08:39:12.247Z,27.62
2023-05-22T08:41:47.479Z,27.66
2023-05-22T08:44:21.056Z,27.69
2023-05-22T08:46:53.815Z,27.74
2023-05-22T08:49:27.410Z,27.78
2023-05-22T08:52:04.285Z,27.82
2023-05-22T08:54:37.747Z,27.87
2023-05-22T08:57:12.634Z,27.91
2023-05-22T08:59:46.395Z,27.96
2023-05-22T09:02:19.473Z,27.99
2023-05-22T09:04:52.652Z,28.03
2023-05-22T09:07:27.901Z,28.06
2023-05-22T09:10:01.258Z,28.11
2023-05-22T09:12:35.461Z,28.14
2023-05-22T09:15:10.105Z,28.18
2023-05-22T09:17:42.885Z,28.22
2023-05-22T09:20:15.883Z,28.25
2023-05-22T09:22:48.653Z,28.28
2023-05-22T09:25:22.022Z,28.32
2023-05-22T09:27:56.508Z,28.33
2023-05-22T09:30:29.222Z,28.36
2023-05-22T09:33:02.108Z,28.35
2023-05-22T09:35:35.479Z,28.36
2023-05-22T09:38:08.884Z,28.39
2023-05-22T09:40:43.169Z,28.41
2023-05-22T09:43:19.279Z,28.41
2023-05-22T09:45:57.426Z,28.42
2023-05-22T09:48:30.428Z,28.44
2023-05-22T09:51:04.012Z,28.46
2023-05-22T09:53:37.233Z,28.49
2023-05-22T09:56:13.002Z,28.50
2023-05-22T09:58:47.844Z,28.51
2023-05-22T10:01:20.759Z,28.54
2023-05-22T10:03:54.723Z,28.55
2023-05-22T10:06:28.841Z,28.57
2023-05-22T10:09:04.450Z,28.59
2023-05-22T10:11:39.699Z,28.58
2023-05-22T10:14:13.934Z,28.61
2023-05-22T10:16:47.028Z,28.61
2023-05-22T10:19:19.878Z,28.62
2023-05-22T10:21:52.893Z,28.63
2023-05-22T10:24:25.690Z,28.63
2023-05-22T10:26:59.143Z,28.65
2023-05-22T10:29:37.286Z,28.66
2023-05-22T10:32:14.043Z,28.67
2023-05-22T10:34:51.953Z,28.69
2023-05-22T10:37:32.121Z,28.68
2023-05-22T10:40:09.024Z,28.69
2023-05-22T10:42:42.020Z,28.68
2023-05-22T10:45:17.586Z,28.67
2023-05-22T10:47:50.557Z,28.67
2023-05-22T10:50:23.385Z,28.68
2023-05-22T10:53:19.468Z,28.68
2023-05-22T10:55:53.084Z,28.69
2023-05-22T10:58:29.904Z,28.68
2023-05-22T11:01:14.619Z,28.71
2023-05-22T11:03:54.720Z,28.68
2023-05-22T11:06:37.973Z,28.69
2023-05-22T11:09:20.549Z,28.68
2023-05-22T11:12:08.136Z,28.68
2023-05-22T11:14:40.960Z,28.69
2023-05-22T11:17:15.222Z,28.69
2023-05-22T11:19:58.762Z,28.68
2023-05-22T11:22:35.269Z,28.69
2023-05-22T11:25:08.963Z,28.68
2023-05-22T11:27:41.983Z,28.68
2023-05-22T11:30:15.612Z,28.68
2023-05-22T11:32:49.816Z,28.70
2023-05-22T11:35:23.258Z,28.72
2023-05-22T11:37:56.542Z,28.74
2023-05-22T11:40:29.706Z,28.76
2023-05-22T11:43:04.052Z,28.78
2023-05-22T11:45:38.264Z,28.81
2023-05-22T11:48:15.264Z,28.84
2023-05-22T11:50:48.711Z,28.87
2023-05-22T11:53:22.000Z,28.89
2023-05-22T11:55:54.765Z,28.91
2023-05-22T11:58:28.494Z,28.93
2023-05-22T12:01:05.363Z,28.94
2023-05-22T12:03:39.446Z,28.98
2023-05-22T12:06:13.974Z,29.02
2023-05-22T12:08:48.003Z,29.05
2023-05-22T12:11:21.690Z,29.07
2023-05-22T12:14:01.282Z,29.10
2023-05-22T12:16:35.615Z,29.13
2023-05-22T12:19:10.557Z,29.16
2023-05-22T12:21:45.046Z,29.18
2023-05-22T12:24:21.611Z,29.23
2023-05-22T12:26:54.667Z,29.27
2023-05-22T12:29:27.359Z,29.30
2023-05-22T12:32:02.656Z,29.34
2023-05-22T12:34:37.708Z,29.40
2023-05-22T12:37:19.025Z,29.47
2023-05-22T12:39:55.706Z,29.53
2023-05-22T12:42:29.130Z,29.58
2023-05-22T12:45:01.835Z,29.66
2023-05-22T12:47:34.679Z,29.72
2023-05-22T12:50:10.351Z,29.75
2023-05-22T12:52:43.134Z,29.79
2023-05-22T12:55:15.854Z,29.81
2023-05-22T12:57:48.485Z,29.85
2023-05-22T13:00:21.412Z,29.87
2023-05-22T13:02:54.594Z,29.88
2023-05-22T13:05:28.800Z,29.90
2023-05-22T13:08:01.547Z,29.89
2023-05-22T13:10:35.469Z,29.87
2023-05-22T13:13:08.218Z,29.84
2023-05-22T13:15:41.253Z,29.84
2023-05-22T13:18:14.311Z,29.83
2023-05-22T13:20:48.506Z,29.80
2023-05-22T13:23:21.221Z,29.74
2023-05-22T13:25:53.901Z,29.70
2023-05-22T13:28:26.590Z,29.62
2023-05-22T13:30:59.383Z,29.53
2023-05-22T13:33:32.702Z,29.47
2023-05-22T13:36:07.277Z,29.41
2023-05-22T13:38:40.071Z,29.33
2023-05-22T13:41:12.851Z,29.28
2023-05-22T13:43:45.735Z,29.27
2023-05-22T13:46:21.040Z,29.30
2023-05-22T13:48:54.015Z,29.32
2023-05-22T13:51:28.300Z,29.35
2023-05-22T13:54:01.119Z,29.40
2023-05-22T13:56:33.796Z,29.46
2023-05-22T13:59:09.199Z,29.51
2023-05-22T14:01:42.250Z,29.54
2023-05-22T14:04:15.118Z,29.57
2023-05-22T14:06:49.203Z,29.58
2023-05-22T14:09:22.020Z,29.60
2023-05-22T14:11:54.807Z,29.57
2023-05-22T14:14:27.582Z,29.58
2023-05-22T14:17:00.328Z,29.60
2023-05-22T14:19:33.178Z,29.64
2023-05-22T14:22:07.473Z,29.69
2023-05-22T14:24:40.148Z,29.74
2023-05-22T14:27:12.888Z,29.81
2023-05-22T14:29:45.587Z,29.90
2023-05-22T14:32:18.341Z,29.99
2023-05-22T14:34:51.966Z,30.07
2023-05-22T14:37:26.055Z,30.19
2023-05-22T14:39:58.895Z,30.26
2023-05-22T14:42:31.675Z,30.34
2023-05-22T14:45:04.978Z,30.42
2023-05-22T14:47:40.633Z,30.48
2023-05-22T14:50:19.919Z,30.51
2023-05-22T14:52:54.830Z,30.55
2023-05-22T14:55:28.433Z,30.56
2023-05-22T14:58:01.531Z,30.57
2023-05-22T15:00:34.263Z,30.59
2023-05-22T15:03:07.122Z,30.64
2023-05-22T15:05:40.167Z,30.66
2023-05-22T15:08:14.599Z,30.73
2023-05-22T15:10:47.482Z,30.80
2023-05-22T15:13:21.576Z,30.85
2023-05-22T15:15:54.424Z,30.86
2023-05-22T15:18:27.625Z,30.89
2023-05-22T15:21:01.190Z,30.94
2023-05-22T15:23:35.654Z,31.01
2023-05-22T15:26:08.444Z,31.04
2023-05-22T15:28:41.303Z,31.07
2023-05-22T15:31:14.540Z,31.09
2023-05-22T15:33:47.678Z,31.14
2023-05-22T15:36:21.291Z,31.16
2023-05-22T15:38:55.508Z,31.21
2023-05-22T15:41:28.294Z,31.25
2023-05-22T15:44:01.194Z,31.29
2023-05-22T15:46:34.391Z,31.32
2023-05-22T15:49:07.168Z,31.36
2023-05-22T15:51:40.196Z,31.38
2023-05-22T15:54:14.330Z,31.38
2023-05-22T15:56:47.107Z,31.33
2023-05-22T15:59:20.521Z,31.30
2023-05-22T16:01:53.197Z,31.26
2023-05-22T16:04:25.991Z,31.19
2023-05-22T16:06:58.753Z,31.13
2023-05-22T16:09:33.055Z,31.05
2023-05-22T16:12:06.088Z,30.96
2023-05-22T16:14:40.069Z,30.86
2023-05-22T16:17:13.241Z,30.79
2023-05-22T16:19:45.913Z,30.69
2023-05-22T16:22:19.451Z,30.60
2023-05-22T16:24:53.570Z,30.54
2023-05-22T16:27:26.381Z,30.47
2023-05-22T16:30:02.494Z,30.37
2023-05-22T16:32:35.294Z,30.30
2023-05-22T16:35:08.326Z,30.25
2023-05-22T16:37:41.460Z,30.17
2023-05-22T16:40:15.984Z,30.12
2023-05-22T16:42:48.786Z,30.05
2023-05-22T16:45:21.566Z,30.04
2023-05-22T16:47:55.894Z,29.99
2023-05-22T16:50:28.925Z,29.99
2023-05-22T16:53:01.953Z,29.98
2023-05-22T16:55:36.131Z,30.00
2023-05-22T16:58:09.729Z,30.01
2023-05-22T17:00:42.980Z,30.05
2023-05-22T17:03:16.035Z,30.06
2023-05-22T17:05:49.205Z,30.10
2023-05-22T17:08:22.023Z,30.07
2023-05-22T17:10:56.574Z,30.05
2023-05-22T17:13:29.685Z,30.04
2023-05-22T17:16:02.508Z,29.98
2023-05-22T17:18:35.765Z,29.92
2023-05-22T17:21:09.224Z,29.85
2023-05-22T17:23:42.116Z,29.79
2023-05-22T17:26:16.602Z,29.73
2023-05-22T17:28:49.337Z,29.65
2023-05-22T17:31:22.798Z,29.61
2023-05-22T17:33:55.981Z,29.56
2023-05-22T17:36:28.733Z,29.50
2023-05-22T17:39:01.760Z,29.46
2023-05-22T17:41:36.471Z,29.42
2023-05-22T17:44:09.258Z,29.36
2023-05-22T17:46:42.340Z,29.31
2023-05-22T17:49:15.242Z,29.25
2023-05-22T17:51:47.932Z,29.16
2023-05-22T17:54:20.703Z,29.09
2023-05-22T17:56:55.193Z,29.00
2023-05-22T17:59:27.996Z,28.90
2023-05-22T18:02:00.937Z,28.78
2023-05-22T18:04:33.861Z,28.68
2023-05-22T18:07:07.133Z,28.56
2023-05-22T18:09:39.873Z,28.45
2023-05-22T18:12:27.880Z,28.31
2023-05-22T18:15:04.635Z,28.21
2023-05-22T18:17:37.414Z,28.10
2023-05-22T18:20:12.022Z,28.03
2023-05-22T18:22:44.693Z,27.95
2023-05-22T18:25:17.496Z,27.88
2023-05-22T18:27:51.657Z,27.81
2023-05-22T18:30:24.543Z,27.75
2023-05-22T18:32:57.297Z,27.68
2023-05-22T18:35:30.298Z,27.62
2023-05-22T18:38:03.140Z,27.56
2023-05-22T18:40:35.925Z,27.49
2023-05-22T18:43:10.045Z,27.41
2023-05-22T18:45:42.929Z,27.32
2023-05-22T18:48:15.964Z,27.23
2023-05-22T18:50:48.997Z,27.11
2023-05-22T18:53:23.192Z,26.98
2023-05-22T18:55:56.012Z,26.84
2023-05-22T18:58:30.338Z,26.68
2023-05-22T19:01:03.384Z,26.54
2023-05-22T19:03:36.138Z,26.37
2023-05-22T19:06:09.076Z,26.22
2023-05-22T19:08:41.819Z,26.08
2023-05-22T19:11:14.784Z,25.92
2023-05-22T19:13:48.920Z,25.77
2023-05-22T19:16:21.758Z,25.63
2023-05-22T19:18:54.916Z,25.50
2023-05-22T19:21:27.604Z,25.35
2023-05-22T19:24:00.822Z,25.20
2023-05-22T19:26:33.578Z,25.07
2023-05-22T19:29:07.795Z,24.93
2023-05-22T19:31:40.637Z,24.77
2023-05-22T19:34:13.338Z,24.63
2023-05-22T19:36:46.267Z,24.48
2023-05-22T19:39:18.985Z,24.35
2023-05-22T19:41:52.746Z,24.19
2023-05-22T19:44:26.797Z,24.04
2023-05-22T19:46:59.552Z,23.88
2023-05-22T19:49:36.745Z,23.75
2023-05-22T19:52:09.581Z,23.61
2023-05-22T19:54:42.382Z,23.48
2023-05-22T19:57:15.049Z,23.35
2023-05-22T19:59:49.074Z,23.24
2023-05-22T20:02:21.924Z,23.12
2023-05-22T20:04:54.781Z,22.99
2023-05-22T20:07:27.572Z,22.88
2023-05-22T20:10:00.415Z,22.78
2023-05-22T20:12:33.217Z,22.67
2023-05-22T20:15:08.217Z,22.56
2023-05-22T20:17:41.906Z,22.48
2023-05-22T20:20:14.786Z,22.39
2023-05-22T20:22:47.751Z,22.30
2023-05-22T20:25:21.239Z,22.22
2023-05-22T20:27:54.283Z,22.14
2023-05-22T20:30:28.427Z,22.07
2023-05-22T20:33:01.175Z,21.99
2023-05-22T20:35:34.128Z,21.92
2023-05-22T20:38:08.780Z,21.84
2023-05-22T20:40:46.658Z,21.78
2023-05-22T20:43:20.065Z,21.71
2023-05-22T20:45:54.256Z,21.66
2023-05-22T20:48:27.107Z,21.60
2023-05-22T20:50:59.826Z,21.52
2023-05-22T20:53:32.662Z,21.46
2023-05-22T20:56:05.506Z,21.39
2023-05-22T20:58:39.230Z,21.35
2023-05-22T21:01:13.393Z,21.29
2023-05-22T21:03:46.221Z,21.23
2023-05-22T21:06:19.284Z,21.17
2023-05-22T21:08:54.150Z,21.10
2023-05-22T21:11:27.152Z,21.04
2023-05-22T21:13:59.912Z,21.00
2023-05-22T21:16:35.789Z,20.94
2023-05-22T21:19:10.573Z,20.89
2023-05-22T21:21:43.311Z,20.83
2023-05-22T21:24:16.109Z,20.78
2023-05-22T21:26:48.835Z,20.73
2023-05-22T21:29:21.621Z,20.68
2023-05-22T21:31:55.840Z,20.62
2023-05-22T21:34:28.832Z,20.57
2023-05-22T21:37:01.560Z,20.51
2023-05-22T21:39:34.331Z,20.46
2023-05-22T21:42:07.648Z,20.43
2023-05-22T21:44:40.683Z,20.39
2023-05-22T21:47:14.701Z,20.37
2023-05-22T21:49:47.656Z,20.31
2023-05-22T21:52:20.506Z,20.28
2023-05-22T21:54:53.905Z,20.22
2023-05-22T21:57:26.559Z,20.19
2023-05-22T21:59:59.487Z,20.17
2023-05-22T22:02:33.728Z,20.14
2023-05-22T22:05:07.233Z,20.11
2023-05-22T22:07:39.964Z,20.08
2023-05-22T22:10:12.948Z,20.06
2023-05-22T22:12:45.676Z,20.02
2023-05-22T22:15:18.425Z,20.00
2023-05-22T22:17:53.287Z,19.98
2023-05-22T22:20:42.569Z,19.94
2023-05-22T22:23:17.404Z,19.93
2023-05-22T22:25:50.245Z,19.93
2023-05-22T22:28:23.403Z,19.94
2023-05-22T22:30:56.151Z,19.96
2023-05-22T22:33:30.569Z,19.98
2023-05-22T22:36:03.473Z,19.98
2023-05-22T22:38:36.163Z,20.00
2023-05-22T22:41:10.732Z,20.00
2023-05-22T22:43:43.448Z,19.98
2023-05-22T22:46:16.177Z,19.98
2023-05-22T22:48:51.202Z,19.96
2023-05-22T22:51:24.742Z,19.92
2023-05-22T22:53:57.695Z,19.90
2023-05-22T22:56:30.734Z,19.87
2023-05-22T22:59:03.485Z,19.82
2023-05-22T23:01:36.399Z,19.78
2023-05-22T23:04:10.717Z,19.72
2023-05-22T23:06:43.639Z,19.68
2023-05-22T23:09:16.435Z,19.64
2023-05-22T23:11:49.161Z,19.58
2023-05-22T23:14:21.789Z,19.53
2023-05-22T23:16:54.801Z,19.49
2023-05-22T23:19:28.967Z,19.45
2023-05-22T23:22:01.957Z,19.41
2023-05-22T23:24:34.664Z,19.37
2023-05-22T23:27:07.411Z,19.33
2023-05-22T23:29:40.157Z,19.31
2023-05-22T23:32:14.697Z,19.25
2023-05-22T23:34:49.121Z,19.20
2023-05-22T23:37:21.920Z,19.15
2023-05-22T23:39:55.304Z,19.14
2023-05-22T23:42:28.166Z,19.10
2023-05-22T23:45:01.748Z,19.07
2023-05-22T23:47:34.657Z,19.03
2023-05-22T23:50:09.301Z,19.00
2023-05-22T23:52:42.061Z,18.96
2023-05-22T23:55:14.793Z,18.94
2023-05-22T23:57:47.532Z,18.91
